createdAt,value
2023-02-18T00:01:34.950Z,15.40
2023-02-18T00:04:01.904Z,15.40
2023-02-18T00:06:34.349Z,15.40
2023-02-18T00:09:02.368Z,15.40
2023-02-18T00:11:31.700Z,15.40
2023-02-18T00:14:00.267Z,15.30
2023-02-18T00:16:28.408Z,15.30
2023-02-18T00:19:01.356Z,15.30
2023-02-18T00:21:28.654Z,15.30
2023-02-18T00:23:55.590Z,15.30
2023-02-18T00:26:22.488Z,15.30
2023-02-18T00:28:49.913Z,15.30
2023-02-18T00:31:27.321Z,15.30
2023-02-18T00:33:54.799Z,15.30
2023-02-18T00:36:22.504Z,15.30
2023-02-18T00:38:51.824Z,15.30
2023-02-18T00:41:19.553Z,15.30
2023-02-18T00:43:47.025Z,15.30
2023-02-18T00:46:13.998Z,15.30
2023-02-18T00:48:40.881Z,15.30
2023-02-18T00:51:09.795Z,15.20
2023-02-18T00:53:36.858Z,15.20
2023-02-18T00:56:04.456Z,15.20
2023-02-18T00:58:31.506Z,15.20
2023-02-18T01:00:59.610Z,15.20
2023-02-18T01:03:26.726Z,15.20
2023-02-18T01:05:53.850Z,15.20
2023-02-18T01:08:21.938Z,15.20
2023-02-18T01:10:54.235Z,15.20
2023-02-18T01:13:21.544Z,15.20
2023-02-18T01:15:48.538Z,15.20
2023-02-18T01:18:15.597Z,15.20
2023-02-18T01:20:43.786Z,15.20
2023-02-18T01:23:10.970Z,15.20
2023-02-18T01:25:38.322Z,15.20
2023-02-18T01:28:06.497Z,15.20
2023-02-18T01:30:33.430Z,15.20
2023-02-18T01:33:00.724Z,15.10
2023-02-18T01:35:27.646Z,15.10
2023-02-18T01:37:55.198Z,15.10
2023-02-18T01:40:26.563Z,15.10
2023-02-18T01:42:53.290Z,15.10
2023-02-18T01:45:35.516Z,15.10
2023-02-18T01:48:13.789Z,15.10
2023-02-18T01:50:48.741Z,15.10
2023-02-18T01:53:20.237Z,15.10
2023-02-18T01:55:48.967Z,15.10
2023-02-18T01:58:16.691Z,15.10
2023-02-18T02:00:43.605Z,15.10
2023-02-18T02:03:10.396Z,15.10
2023-02-18T02:05:37.136Z,15.10
2023-02-18T02:08:05.777Z,15.10
2023-02-18T02:10:47.541Z,15.00
2023-02-18T02:13:26.399Z,15.00
2023-02-18T02:16:10.515Z,15.00
2023-02-18T02:18:49.483Z,15.00
2023-02-18T02:21:40.526Z,15.00
2023-02-18T02:24:22.267Z,15.00
2023-02-18T02:27:12.787Z,15.00
2023-02-18T02:29:42.028Z,14.90
2023-02-18T02:32:17.544Z,14.90
2023-02-18T02:34:52.753Z,14.90
2023-02-18T02:38:16.620Z,14.90
2023-02-18T02:40:50.705Z,14.90
2023-02-18T02:43:29.713Z,14.90
2023-02-18T02:46:09.593Z,14.90
2023-02-18T02:48:44.814Z,14.90
2023-02-18T02:51:20.372Z,14.90
2023-02-18T02:53:47.114Z,14.90
2023-02-18T02:56:16.689Z,14.90
2023-02-18T02:58:45.663Z,14.90
2023-02-18T03:01:18.704Z,14.90
2023-02-18T03:04:02.578Z,14.90
2023-02-18T03:06:35.825Z,14.90
2023-02-18T03:09:24.670Z,14.90
2023-02-18T03:12:11.439Z,14.90
2023-02-18T03:15:14.728Z,14.90
2023-02-18T03:17:50.133Z,14.90
2023-02-18T03:20:26.497Z,14.80
2023-02-18T03:22:55.593Z,14.90
2023-02-18T03:25:23.607Z,14.80
2023-02-18T03:27:57.890Z,14.80
2023-02-18T03:30:29.606Z,14.80
2023-02-18T03:33:03.792Z,14.80
2023-02-18T03:35:30.846Z,14.80
2023-02-18T03:38:15.269Z,14.80
2023-02-18T03:40:42.114Z,14.80
2023-02-18T03:43:09.138Z,14.80
2023-02-18T03:45:36.025Z,14.80
2023-02-18T03:48:02.844Z,14.80
2023-02-18T03:50:29.668Z,14.80
2023-02-18T03:52:56.469Z,14.70
2023-02-18T03:55:23.255Z,14.80
2023-02-18T03:57:50.038Z,14.80
2023-02-18T04:00:17.390Z,14.80
2023-02-18T04:02:44.155Z,14.80
2023-02-18T04:05:11.088Z,14.80
2023-02-18T04:07:37.848Z,14.80
2023-02-18T04:10:06.245Z,14.80
2023-02-18T04:12:33.111Z,14.80
2023-02-18T04:14:59.976Z,14.70
2023-02-18T04:17:26.785Z,14.70
2023-02-18T04:19:53.546Z,14.70
2023-02-18T04:22:20.234Z,14.70
2023-02-18T04:24:46.911Z,14.70
2023-02-18T04:27:13.630Z,14.70
2023-02-18T04:29:40.507Z,14.70
2023-02-18T04:32:07.348Z,14.70
2023-02-18T04:34:34.138Z,14.70
2023-02-18T04:37:00.811Z,14.70
2023-02-18T04:39:27.520Z,14.70
2023-02-18T04:41:54.265Z,14.70
2023-02-18T04:44:21.028Z,14.70
2023-02-18T04:46:48.074Z,14.70
2023-02-18T04:49:14.789Z,14.70
2023-02-18T04:51:41.633Z,14.70
2023-02-18T04:54:08.369Z,14.70
2023-02-18T04:56:35.127Z,14.70
2023-02-18T04:59:01.799Z,14.70
2023-02-18T05:01:28.564Z,14.70
2023-02-18T05:03:55.374Z,14.70
2023-02-18T05:06:22.150Z,14.60
2023-02-18T05:08:48.879Z,14.60
2023-02-18T05:11:15.636Z,14.60
2023-02-18T05:13:42.343Z,14.60
2023-02-18T05:16:09.451Z,14.60
2023-02-18T05:18:36.533Z,14.60
2023-02-18T05:21:03.318Z,14.60
2023-02-18T05:23:30.089Z,14.60
2023-02-18T05:25:56.842Z,14.60
2023-02-18T05:28:23.801Z,14.60
2023-02-18T05:30:50.577Z,14.60
2023-02-18T05:33:17.348Z,14.60
2023-02-18T05:35:44.066Z,14.60
2023-02-18T05:38:10.872Z,14.60
2023-02-18T05:40:38.791Z,14.60
2023-02-18T05:43:05.519Z,14.60
2023-02-18T05:45:32.447Z,14.60
2023-02-18T05:47:59.382Z,14.60
2023-02-18T05:50:26.123Z,14.60
2023-02-18T05:52:52.919Z,14.60
2023-02-18T05:55:20.034Z,14.60
2023-02-18T05:57:46.769Z,14.60
2023-02-18T06:00:14.219Z,14.60
2023-02-18T06:02:41.037Z,14.60
2023-02-18T06:05:09.166Z,14.60
2023-02-18T06:07:36.127Z,14.50
2023-02-18T06:10:04.162Z,14.50
2023-02-18T06:12:30.859Z,14.60
2023-02-18T06:14:57.563Z,14.50
2023-02-18T06:17:24.353Z,14.50
2023-02-18T06:19:51.169Z,14.60
2023-02-18T06:22:17.955Z,14.50
2023-02-18T06:24:44.699Z,14.50
2023-02-18T06:27:11.473Z,14.50
2023-02-18T06:29:38.229Z,14.50
2023-02-18T06:32:05.301Z,14.50
2023-02-18T06:34:32.139Z,14.50
2023-02-18T06:37:01.074Z,14.50
2023-02-18T06:39:29.942Z,14.50
2023-02-18T06:41:56.703Z,14.50
2023-02-18T06:44:23.431Z,14.50
2023-02-18T06:46:50.167Z,14.50
2023-02-18T06:49:16.872Z,14.50
2023-02-18T06:51:43.576Z,14.50
2023-02-18T06:54:10.356Z,14.50
2023-02-18T06:56:37.060Z,14.50
2023-02-18T06:59:03.742Z,14.50
2023-02-18T07:01:30.416Z,14.50
2023-02-18T07:03:57.114Z,14.50
2023-02-18T07:06:23.857Z,14.50
2023-02-18T07:08:50.699Z,14.50
2023-02-18T07:11:17.704Z,14.50
2023-02-18T07:13:44.507Z,14.40
2023-02-18T07:16:11.591Z,14.40
2023-02-18T07:18:38.597Z,14.40
2023-02-18T07:21:05.497Z,14.40
2023-02-18T07:23:32.291Z,14.40
2023-02-18T07:26:07.843Z,14.40
2023-02-18T07:28:34.929Z,14.40
2023-02-18T07:31:02.092Z,14.40
2023-02-18T07:33:28.865Z,14.40
2023-02-18T07:35:57.246Z,14.40
2023-02-18T07:38:25.092Z,14.40
2023-02-18T07:40:52.409Z,14.40
2023-02-18T07:43:19.476Z,14.40
2023-02-18T07:45:46.908Z,14.40
2023-02-18T07:48:13.848Z,14.40
2023-02-18T07:50:42.005Z,14.40
2023-02-18T07:53:10.147Z,14.40
2023-02-18T07:55:49.200Z,14.40
2023-02-18T07:58:22.198Z,14.40
2023-02-18T08:00:51.973Z,14.40
2023-02-18T08:03:19.688Z,14.40
2023-02-18T08:05:48.910Z,14.40
2023-02-18T08:08:17.953Z,14.40
2023-02-18T08:10:44.679Z,14.40
2023-02-18T08:13:11.461Z,14.40
2023-02-18T08:15:38.732Z,14.40
2023-02-18T08:18:07.187Z,14.40
2023-02-18T08:20:37.937Z,14.40
2023-02-18T08:23:06.126Z,14.40
2023-02-18T08:25:32.890Z,14.40
2023-02-18T08:27:59.844Z,14.40
2023-02-18T08:30:27.172Z,14.40
2023-02-18T08:32:54.110Z,14.40
2023-02-18T08:35:20.877Z,14.40
2023-02-18T08:37:52.847Z,14.40
2023-02-18T08:40:21.533Z,14.40
2023-02-18T08:42:48.406Z,14.40
2023-02-18T08:45:15.206Z,14.40
2023-02-18T08:48:18.538Z,14.40
2023-02-18T08:50:28.684Z,14.40
2023-02-18T08:52:56.719Z,14.40
2023-02-18T08:55:24.936Z,14.40
2023-02-18T08:57:51.665Z,14.40
2023-02-18T09:00:18.918Z,14.40
2023-02-18T09:02:47.442Z,14.40
2023-02-18T09:05:14.727Z,14.40
2023-02-18T09:07:41.597Z,14.40
2023-02-18T09:10:09.252Z,14.40
2023-02-18T09:12:36.409Z,14.50
2023-02-18T09:15:05.028Z,14.40
2023-02-18T09:17:31.946Z,14.40
2023-02-18T09:19:58.672Z,14.40
2023-02-18T09:22:25.733Z,14.40
2023-02-18T09:24:52.951Z,14.40
2023-02-18T09:27:21.259Z,14.50
2023-02-18T09:33:03.257Z,14.50
2023-02-18T09:35:40.958Z,14.40
2023-02-18T09:38:14.600Z,14.40
2023-02-18T09:40:50.174Z,14.50
2023-02-18T09:47:07.388Z,14.40
2023-02-18T09:52:33.384Z,14.40
2023-02-18T09:55:01.282Z,14.40
2023-02-18T09:57:39.358Z,14.40
2023-02-18T10:00:19.870Z,14.40
2023-02-18T10:02:57.729Z,14.40
2023-02-18T10:05:27.482Z,14.40
2023-02-18T10:07:58.353Z,14.40
2023-02-18T10:10:33.672Z,14.40
2023-02-18T10:13:01.467Z,14.40
2023-02-18T10:15:31.638Z,14.40
2023-02-18T10:17:59.625Z,14.40
2023-02-18T10:20:30.270Z,14.40
2023-02-18T10:23:00.959Z,14.40
2023-02-18T10:25:29.619Z,14.40
2023-02-18T10:27:59.800Z,14.40
2023-02-18T10:30:35.886Z,14.40
2023-02-18T10:33:32.404Z,14.40
2023-02-18T10:36:04.962Z,14.40
2023-02-18T10:38:46.392Z,14.40
2023-02-18T10:41:26.704Z,14.40
2023-02-18T10:44:19.063Z,14.40
2023-02-18T10:46:59.391Z,14.40
2023-02-18T10:49:54.642Z,14.40
2023-02-18T10:52:21.825Z,14.40
2023-02-18T10:55:07.212Z,14.40
2023-02-18T10:57:34.197Z,14.40
2023-02-18T11:00:15.437Z,14.40
2023-02-18T11:02:43.314Z,14.50
2023-02-18T11:05:26.429Z,14.50
2023-02-18T11:08:06.425Z,14.50
2023-02-18T11:10:38.302Z,14.50
2023-02-18T11:13:10.270Z,14.50
2023-02-18T11:15:37.337Z,14.50
2023-02-18T11:18:25.956Z,14.50
2023-02-18T11:20:58.987Z,14.50
2023-02-18T11:23:25.760Z,14.50
2023-02-18T11:26:00.694Z,14.50
2023-02-18T11:28:33.145Z,14.50
2023-02-18T11:31:02.520Z,14.50
2023-02-18T11:33:42.605Z,14.50
2023-02-18T11:36:18.313Z,14.50
2023-02-18T11:39:01.093Z,14.50
2023-02-18T11:41:35.643Z,14.50
2023-02-18T11:44:05.537Z,14.50
2023-02-18T11:46:32.371Z,14.50
2023-02-18T11:49:21.153Z,14.50
2023-02-18T11:51:49.885Z,14.50
2023-02-18T11:54:24.442Z,14.50
2023-02-18T11:57:01.158Z,14.50
2023-02-18T11:59:33.012Z,14.60
2023-02-18T12:02:11.746Z,14.50
2023-02-18T12:04:52.697Z,14.50
2023-02-18T12:07:26.553Z,14.50
2023-02-18T12:09:58.074Z,14.50
2023-02-18T12:12:36.255Z,14.50
2023-02-18T12:15:03.106Z,14.50
2023-02-18T12:17:51.882Z,14.50
2023-02-18T12:21:00.823Z,14.50
2023-02-18T12:23:59.462Z,14.50
2023-02-18T12:26:37.808Z,14.50
2023-02-18T12:29:32.881Z,14.50
2023-02-18T12:32:18.741Z,14.50
2023-02-18T12:35:10.356Z,14.50
2023-02-18T12:37:56.415Z,14.50
2023-02-18T12:40:52.750Z,14.50
2023-02-18T12:43:42.868Z,14.50
2023-02-18T12:46:47.252Z,14.50
2023-02-18T12:49:40.800Z,14.50
2023-02-18T12:52:22.347Z,14.50
2023-02-18T12:55:07.988Z,14.50
2023-02-18T12:57:43.859Z,14.50
2023-02-18T13:00:35.298Z,14.50
2023-02-18T13:03:31.039Z,14.50
2023-02-18T13:06:08.285Z,14.50
2023-02-18T13:09:14.399Z,14.50
2023-02-18T13:11:50.628Z,14.50
2023-02-18T13:14:22.026Z,14.50
2023-02-18T13:16:52.466Z,14.50
2023-02-18T13:19:33.148Z,14.60
2023-02-18T13:22:05.904Z,14.60
2023-02-18T13:24:38.458Z,14.60
2023-02-18T13:27:23.726Z,14.60
2023-02-18T13:30:06.318Z,14.60
2023-02-18T13:32:53.748Z,14.60
2023-02-18T13:35:41.004Z,14.60
2023-02-18T13:38:28.443Z,14.60
2023-02-18T13:40:57.329Z,14.60
2023-02-18T13:43:27.180Z,14.60
2023-02-18T13:46:18.864Z,14.60
2023-02-18T13:49:11.915Z,14.60
2023-02-18T13:51:48.615Z,14.60
2023-02-18T13:54:33.650Z,14.60
2023-02-18T13:57:03.767Z,14.60
2023-02-18T13:59:35.614Z,14.60
2023-02-18T14:02:35.793Z,14.60
2023-02-18T14:05:08.492Z,14.60
2023-02-18T14:07:44.437Z,14.60
2023-02-18T14:10:16.883Z,14.60
2023-02-18T14:13:03.524Z,14.60
2023-02-18T14:15:30.234Z,14.60
2023-02-18T14:18:14.992Z,14.60
2023-02-18T14:20:41.662Z,14.60
2023-02-18T14:23:20.439Z,14.60
2023-02-18T14:26:09.193Z,14.60
2023-02-18T14:28:46.959Z,14.60
2023-02-18T14:31:14.124Z,14.60
2023-02-18T14:33:48.407Z,14.60
2023-02-18T14:36:15.148Z,14.60
2023-02-18T14:39:04.444Z,14.60
2023-02-18T14:42:03.549Z,14.60
2023-02-18T14:44:33.760Z,14.60
2023-02-18T14:47:30.174Z,14.60
2023-02-18T14:50:01.031Z,14.60
2023-02-18T14:52:31.092Z,14.60
2023-02-18T14:55:00.318Z,14.60
2023-02-18T14:57:43.538Z,14.60
2023-02-18T15:00:24.742Z,14.60
2023-02-18T15:02:54.326Z,14.60
2023-02-18T15:05:27.243Z,14.60
2023-02-18T15:07:57.641Z,14.60
2023-02-18T15:10:35.786Z,14.60
2023-02-18T15:13:04.208Z,14.60
2023-02-18T15:15:34.318Z,14.60
2023-02-18T15:18:02.651Z,14.60
2023-02-18T15:20:33.469Z,14.60
2023-02-18T15:23:01.034Z,14.60
2023-02-18T15:25:27.930Z,14.60
2023-02-18T15:27:55.076Z,14.60
2023-02-18T15:30:25.584Z,14.60
2023-02-18T15:32:54.596Z,14.60
2023-02-18T15:35:22.998Z,14.60
2023-02-18T15:37:55.428Z,14.60
2023-02-18T15:40:26.053Z,14.60
2023-02-18T15:42:56.762Z,14.60
2023-02-18T15:45:33.109Z,14.60
2023-02-18T15:48:00.712Z,14.60
2023-02-18T15:50:36.975Z,14.60
2023-02-18T15:53:10.034Z,14.60
2023-02-18T15:55:41.783Z,14.60
2023-02-18T15:58:14.726Z,14.60
2023-02-18T16:00:53.245Z,14.60
2023-02-18T16:03:46.505Z,14.60
2023-02-18T16:06:19.219Z,14.60
2023-02-18T16:09:20.183Z,14.60
2023-02-18T16:11:59.414Z,14.60
2023-02-18T16:14:45.054Z,14.60
2023-02-18T16:17:11.748Z,14.60
2023-02-18T16:20:03.322Z,14.60
2023-02-18T16:22:34.352Z,14.60
2023-02-18T16:25:13.073Z,14.60
2023-02-18T16:28:04.952Z,14.60
2023-02-18T16:30:33.940Z,14.60
2023-02-18T16:33:00.777Z,14.60
2023-02-18T16:35:32.730Z,14.60
2023-02-18T16:38:05.213Z,14.60
2023-02-18T16:40:36.966Z,14.60
2023-02-18T16:43:18.590Z,14.60
2023-02-18T16:45:57.092Z,14.60
2023-02-18T16:48:29.769Z,14.60
2023-02-18T16:50:59.242Z,14.60
2023-02-18T16:53:25.965Z,14.60
2023-02-18T16:55:52.699Z,14.60
2023-02-18T16:58:19.607Z,14.60
2023-02-18T17:00:47.091Z,14.60
2023-02-18T17:03:14.140Z,14.60
2023-02-18T17:05:41.113Z,14.60
2023-02-18T17:08:23.023Z,14.70
2023-02-18T17:10:52.361Z,14.70
2023-02-18T17:13:27.980Z,14.80
2023-02-18T17:15:56.402Z,14.90
2023-02-18T17:18:24.153Z,15.00
2023-02-18T17:20:52.524Z,15.20
2023-02-18T17:23:22.957Z,15.30
2023-02-18T17:25:51.121Z,15.40
2023-02-18T17:28:19.202Z,15.60
2023-02-18T17:30:58.238Z,15.70
2023-02-18T17:33:25.685Z,15.90
2023-02-18T17:35:52.466Z,16.00
2023-02-18T17:38:19.769Z,16.10
2023-02-18T17:40:48.731Z,16.30
2023-02-18T17:43:16.949Z,16.40
2023-02-18T17:45:49.263Z,16.50
2023-02-18T17:48:16.010Z,16.60
2023-02-18T17:50:42.785Z,16.70
2023-02-18T17:53:13.913Z,16.80
2023-02-18T17:55:42.383Z,16.90
2023-02-18T17:58:10.088Z,16.90
2023-02-18T18:00:50.498Z,17.00
2023-02-18T18:03:17.401Z,17.00
2023-02-18T18:05:48.942Z,17.00
2023-02-18T18:08:16.443Z,17.10
2023-02-18T18:10:50.383Z,17.10
2023-02-18T18:13:29.151Z,17.20
2023-02-18T18:15:57.940Z,17.20
2023-02-18T18:18:25.876Z,17.20
2023-02-18T18:20:55.885Z,17.20
2023-02-18T18:23:23.368Z,17.20
2023-02-18T18:25:56.124Z,17.20
2023-02-18T18:28:23.782Z,17.20
2023-02-18T18:30:53.095Z,17.20
2023-02-18T18:33:23.398Z,17.20
2023-02-18T18:35:52.832Z,17.20
2023-02-18T18:38:21.592Z,17.20
2023-02-18T18:40:49.160Z,17.10
2023-02-18T18:43:38.740Z,17.10
2023-02-18T18:46:05.578Z,17.10
2023-02-18T18:48:32.492Z,17.10
2023-02-18T18:51:01.377Z,17.10
2023-02-18T18:53:33.437Z,17.10
2023-02-18T18:56:02.715Z,17.00
2023-02-18T18:58:29.442Z,17.00
2023-02-18T19:00:59.424Z,16.90
2023-02-18T19:03:28.251Z,16.90
2023-02-18T19:05:55.352Z,16.90
2023-02-18T19:08:22.553Z,16.90
2023-02-18T19:10:57.066Z,16.90
2023-02-18T19:13:29.627Z,16.80
2023-02-18T19:16:04.281Z,16.80
2023-02-18T19:18:33.470Z,16.80
2023-02-18T19:21:04.627Z,16.80
2023-02-18T19:23:32.614Z,16.80
2023-02-18T19:25:59.696Z,16.80
2023-02-18T19:28:27.170Z,16.80
2023-02-18T19:30:54.003Z,16.80
2023-02-18T19:33:20.817Z,16.80
2023-02-18T19:35:47.645Z,16.90
2023-02-18T19:38:16.512Z,17.10
2023-02-18T19:40:44.545Z,17.30
2023-02-18T19:43:11.860Z,17.50
2023-02-18T19:45:43.971Z,17.70
2023-02-18T19:48:11.908Z,18.00
2023-02-18T19:50:40.591Z,18.20
2023-02-18T19:53:07.546Z,18.50
2023-02-18T19:55:34.216Z,18.60
2023-02-18T19:58:01.011Z,18.90
2023-02-18T20:00:27.691Z,19.10
2023-02-18T20:02:54.465Z,19.20
2023-02-18T20:05:21.402Z,19.40
2023-02-18T20:07:48.203Z,19.50
2023-02-18T20:10:19.905Z,19.60
2023-02-18T20:12:50.781Z,19.70
2023-02-18T20:15:17.522Z,19.80
2023-02-18T20:17:44.248Z,19.90
2023-02-18T20:20:11.087Z,20.00
2023-02-18T20:22:37.826Z,20.00
2023-02-18T20:25:04.778Z,20.10
2023-02-18T20:27:33.148Z,20.10
2023-02-18T20:30:00.079Z,20.20
2023-02-18T20:32:26.855Z,20.20
2023-02-18T20:34:53.758Z,20.20
2023-02-18T20:37:20.448Z,20.20
2023-02-18T20:39:47.285Z,20.30
2023-02-18T20:42:16.587Z,20.30
2023-02-18T20:44:44.946Z,20.30
2023-02-18T20:47:15.471Z,20.30
2023-02-18T20:49:42.279Z,20.30
2023-02-18T20:52:10.151Z,20.30
2023-02-18T20:54:36.960Z,20.30
2023-02-18T20:57:04.000Z,20.20
2023-02-18T20:59:33.145Z,20.30
2023-02-18T21:02:00.234Z,20.20
2023-02-18T21:04:27.472Z,20.20
2023-02-18T21:06:55.271Z,20.20
2023-02-18T21:09:22.080Z,20.20
2023-02-18T21:11:49.210Z,20.20
2023-02-18T21:14:16.108Z,20.10
2023-02-18T21:16:42.892Z,20.10
2023-02-18T21:19:13.994Z,20.10
2023-02-18T21:21:44.929Z,20.10
2023-02-18T21:24:11.846Z,20.00
2023-02-18T21:26:39.044Z,20.00
2023-02-18T21:29:08.137Z,20.00
2023-02-18T21:31:37.427Z,19.90
2023-02-18T21:34:06.054Z,19.90
2023-02-18T21:36:33.691Z,19.90
2023-02-18T21:39:03.911Z,19.90
2023-02-18T21:41:33.167Z,19.80
2023-02-18T21:43:59.972Z,19.80
2023-02-18T21:46:29.523Z,19.80
2023-02-18T21:49:02.799Z,19.70
2023-02-18T21:51:57.156Z,19.70
2023-02-18T21:54:27.717Z,19.60
2023-02-18T21:56:55.184Z,19.60
2023-02-18T21:59:23.742Z,19.50
2023-02-18T22:01:50.843Z,19.50
2023-02-18T22:04:17.670Z,19.50
2023-02-18T22:06:44.569Z,19.40
2023-02-18T22:09:12.014Z,19.40
2023-02-18T22:11:41.829Z,19.40
2023-02-18T22:14:10.055Z,19.30
2023-02-18T22:16:36.972Z,19.30
2023-02-18T22:19:03.748Z,19.20
2023-02-18T22:21:30.830Z,19.20
2023-02-18T22:23:57.615Z,19.20
2023-02-18T22:26:24.631Z,19.10
2023-02-18T22:28:57.075Z,19.00
2023-02-18T22:31:25.764Z,19.00
2023-02-18T22:33:53.936Z,19.00
2023-02-18T22:36:22.922Z,18.90
2023-02-18T22:38:50.202Z,18.90
2023-02-18T22:41:19.464Z,18.80
2023-02-18T22:43:46.684Z,18.80
2023-02-18T22:46:16.430Z,18.80
2023-02-18T22:48:43.654Z,18.70
2023-02-18T22:51:18.913Z,18.70
2023-02-18T22:53:46.153Z,18.70
2023-02-18T22:56:15.564Z,18.60
2023-02-18T22:58:46.118Z,18.60
2023-02-18T23:01:32.646Z,18.50
2023-02-18T23:04:04.666Z,18.50
2023-02-18T23:06:31.517Z,18.50
2023-02-18T23:08:58.246Z,18.40
2023-02-18T23:11:25.393Z,18.40
2023-02-18T23:14:13.879Z,18.40
2023-02-18T23:17:01.077Z,18.30
2023-02-18T23:19:30.136Z,18.30
2023-02-18T23:21:57.255Z,18.30
2023-02-18T23:24:24.362Z,18.20
2023-02-18T23:26:51.424Z,18.20
2023-02-18T23:29:18.555Z,18.20
2023-02-18T23:31:45.346Z,18.10
2023-02-18T23:34:14.380Z,18.10
2023-02-18T23:36:41.536Z,18.10
2023-02-18T23:39:09.843Z,18.10
2023-02-18T23:41:37.144Z,18.00
2023-02-18T23:44:05.425Z,18.00
2023-02-18T23:46:32.604Z,18.00
2023-02-18T23:49:00.313Z,17.90
2023-02-18T23:51:27.310Z,17.90
2023-02-18T23:53:54.021Z,17.90
2023-02-18T23:56:29.944Z,17.90
2023-02-18T23:59:00.356Z,17.80
